createdAt,value
2023-04-24T00:00:29.303Z,15.34
2023-04-24T00:02:58.772Z,15.25
2023-04-24T00:05:27.167Z,15.58
2023-04-24T00:07:56.276Z,15.34
2023-04-24T00:10:24.653Z,15.48
2023-04-24T00:12:52.929Z,15.31
2023-04-24T00:15:21.101Z,14.98
2023-04-24T00:17:49.308Z,15.11
2023-04-24T00:20:17.897Z,15.09
2023-04-24T00:22:46.185Z,15.17
2023-04-24T00:25:14.463Z,15.39
2023-04-24T00:27:42.705Z,15.42
2023-04-24T00:30:11.392Z,15.01
2023-04-24T00:32:39.799Z,15.18
2023-04-24T00:35:08.343Z,15.03
2023-04-24T00:37:36.951Z,15.04
2023-04-24T00:40:07.325Z,15.18
2023-04-24T00:42:36.507Z,15.34
2023-04-24T00:45:07.305Z,15.11
2023-04-24T00:47:35.926Z,15.10
2023-04-24T00:50:08.627Z,15.01
2023-04-24T00:52:36.905Z,15.34
2023-04-24T00:55:06.573Z,15.08
2023-04-24T00:57:35.151Z,15.13
2023-04-24T01:00:04.563Z,14.78
2023-04-24T01:02:35.614Z,14.93
2023-04-24T01:05:04.697Z,14.87
2023-04-24T01:07:33.093Z,15.15
2023-04-24T01:10:03.474Z,15.22
2023-04-24T01:12:31.807Z,15.13
2023-04-24T01:15:00.194Z,15.27
2023-04-24T01:17:28.536Z,15.03
2023-04-24T01:19:59.363Z,15.38
2023-04-24T01:22:27.854Z,15.13
2023-04-24T01:24:56.100Z,15.07
2023-04-24T01:27:24.450Z,15.09
2023-04-24T01:29:53.001Z,14.79
2023-04-24T01:32:21.720Z,15.15
2023-04-24T01:34:50.421Z,15.23
2023-04-24T01:37:18.845Z,14.87
2023-04-24T01:39:47.046Z,14.72
2023-04-24T01:42:15.793Z,15.12
2023-04-24T01:44:44.155Z,14.76
2023-04-24T01:47:13.421Z,14.73
2023-04-24T01:49:42.075Z,14.76
2023-04-24T01:52:10.836Z,14.96
2023-04-24T01:54:38.768Z,15.00
2023-04-24T01:57:07.340Z,15.00
2023-04-24T01:59:37.313Z,15.12
2023-04-24T02:02:05.807Z,14.79
2023-04-24T02:04:34.721Z,15.13
2023-04-24T02:07:03.113Z,14.74
2023-04-24T02:09:33.892Z,14.78
2023-04-24T02:12:02.169Z,14.86
2023-04-24T02:14:30.462Z,14.77
2023-04-24T02:16:58.790Z,14.75
2023-04-24T02:19:27.231Z,14.75
2023-04-24T02:21:55.517Z,14.83
2023-04-24T02:24:23.324Z,14.86
2023-04-24T02:26:51.673Z,14.77
2023-04-24T02:29:20.186Z,14.90
2023-04-24T02:31:48.414Z,14.87
2023-04-24T02:34:17.281Z,14.73
2023-04-24T02:36:45.555Z,14.88
2023-04-24T02:39:14.446Z,14.90
2023-04-24T02:41:42.787Z,14.78
2023-04-24T02:44:11.112Z,14.87
2023-04-24T02:46:39.725Z,14.60
2023-04-24T02:49:08.003Z,14.86
2023-04-24T02:51:39.046Z,14.96
2023-04-24T02:54:07.738Z,15.02
2023-04-24T02:56:36.013Z,14.95
2023-04-24T02:59:05.715Z,15.04
2023-04-24T03:01:34.535Z,14.65
2023-04-24T03:04:03.318Z,14.69
2023-04-24T03:06:33.828Z,14.76
2023-04-24T03:09:02.471Z,14.64
2023-04-24T03:11:30.729Z,14.83
2023-04-24T03:13:59.256Z,14.78
2023-04-24T03:16:27.477Z,14.28
2023-04-24T03:18:57.161Z,14.74
2023-04-24T03:21:28.350Z,14.62
2023-04-24T03:23:57.093Z,14.81
2023-04-24T03:26:25.872Z,14.97
2023-04-24T03:29:06.487Z,15.00
2023-04-24T03:31:36.004Z,14.93
2023-04-24T03:34:04.342Z,14.66
2023-04-24T03:36:32.949Z,14.49
2023-04-24T03:39:01.476Z,13.87
2023-04-24T03:41:33.445Z,14.20
2023-04-24T03:44:19.281Z,14.26
2023-04-24T03:46:47.809Z,14.39
2023-04-24T03:49:16.840Z,14.31
2023-04-24T03:51:47.142Z,13.91
2023-04-24T03:54:27.481Z,13.98
2023-04-24T03:56:56.472Z,14.39
2023-04-24T03:59:26.868Z,14.21
2023-04-24T04:02:13.897Z,14.06
2023-04-24T04:04:42.939Z,13.83
2023-04-24T04:07:12.234Z,14.06
2023-04-24T04:09:41.201Z,14.02
2023-04-24T04:12:09.958Z,13.63
2023-04-24T04:14:40.388Z,13.92
2023-04-24T04:17:08.768Z,13.91
2023-04-24T04:19:37.237Z,13.98
2023-04-24T04:22:05.665Z,13.65
2023-04-24T04:24:45.529Z,14.00
2023-04-24T04:27:13.996Z,13.98
2023-04-24T04:29:57.536Z,13.42
2023-04-24T04:32:27.096Z,13.98
2023-04-24T04:34:55.446Z,13.68
2023-04-24T04:37:26.300Z,14.08
2023-04-24T04:40:08.543Z,13.82
2023-04-24T04:42:43.480Z,13.86
2023-04-24T04:45:12.495Z,13.78
2023-04-24T04:47:56.491Z,13.85
2023-04-24T04:50:26.025Z,14.19
2023-04-24T04:53:02.564Z,13.96
2023-04-24T04:55:35.876Z,13.50
2023-04-24T04:58:24.872Z,13.69
2023-04-24T05:00:58.313Z,14.12
2023-04-24T05:03:35.065Z,13.92
2023-04-24T05:06:08.033Z,13.34
2023-04-24T05:08:39.766Z,13.68
2023-04-24T05:11:11.604Z,13.89
2023-04-24T05:13:41.500Z,13.65
2023-04-24T05:16:20.629Z,13.89
2023-04-24T05:18:52.348Z,13.91
2023-04-24T05:21:25.230Z,13.49
2023-04-24T05:23:54.712Z,13.99
2023-04-24T05:26:37.430Z,13.73
2023-04-24T05:29:07.971Z,14.00
2023-04-24T05:31:36.581Z,13.84
2023-04-24T05:34:06.158Z,13.52
2023-04-24T05:36:34.473Z,13.69
2023-04-24T05:39:03.217Z,13.55
2023-04-24T05:41:31.656Z,13.93
2023-04-24T05:44:00.149Z,13.78
2023-04-24T05:46:28.848Z,14.05
2023-04-24T05:48:58.312Z,13.83
2023-04-24T05:51:26.934Z,13.58
2023-04-24T05:53:55.628Z,13.79
2023-04-24T05:56:24.216Z,13.84
2023-04-24T05:58:53.101Z,14.04
2023-04-24T06:01:21.662Z,14.15
2023-04-24T06:03:58.023Z,14.14
2023-04-24T06:06:28.260Z,14.25
2023-04-24T06:08:57.905Z,13.97
2023-04-24T06:11:27.327Z,14.16
2023-04-24T06:13:56.030Z,14.35
2023-04-24T06:16:43.484Z,14.15
2023-04-24T06:19:32.074Z,13.92
2023-04-24T06:22:00.364Z,14.16
2023-04-24T06:24:31.953Z,14.21
2023-04-24T06:27:01.419Z,14.30
2023-04-24T06:29:29.775Z,14.29
2023-04-24T06:31:58.122Z,14.35
2023-04-24T06:34:26.552Z,14.44
2023-04-24T06:36:55.973Z,14.31
2023-04-24T06:39:24.194Z,14.26
2023-04-24T06:41:52.520Z,14.38
2023-04-24T06:44:22.306Z,14.75
2023-04-24T06:46:50.638Z,14.47
2023-04-24T06:49:18.946Z,14.56
2023-04-24T06:51:47.915Z,14.42
2023-04-24T06:54:16.189Z,14.10
2023-04-24T06:56:46.767Z,14.58
2023-04-24T06:59:15.112Z,14.46
2023-04-24T07:01:45.468Z,14.47
2023-04-24T07:04:14.131Z,14.14
2023-04-24T07:06:42.587Z,14.23
2023-04-24T07:09:11.341Z,14.11
2023-04-24T07:11:41.556Z,14.13
2023-04-24T07:14:09.894Z,14.21
2023-04-24T07:16:38.208Z,14.20
2023-04-24T07:19:06.721Z,14.37
2023-04-24T07:21:34.921Z,14.09
2023-04-24T07:24:03.699Z,14.29
2023-04-24T07:26:32.611Z,13.85
2023-04-24T07:29:00.926Z,14.08
2023-04-24T07:31:29.322Z,13.57
2023-04-24T07:33:59.135Z,14.00
2023-04-24T07:36:27.933Z,13.86
2023-04-24T07:38:57.482Z,13.78
2023-04-24T07:41:26.190Z,13.81
2023-04-24T07:43:54.861Z,13.94
2023-04-24T07:46:24.305Z,14.30
2023-04-24T07:49:02.090Z,14.03
2023-04-24T07:51:39.524Z,14.16
2023-04-24T07:54:07.809Z,14.39
2023-04-24T07:56:39.692Z,14.63
2023-04-24T07:59:08.126Z,14.73
2023-04-24T08:01:36.815Z,14.32
2023-04-24T08:04:05.415Z,14.32
2023-04-24T08:06:34.161Z,14.08
2023-04-24T08:09:02.613Z,14.16
2023-04-24T08:11:30.915Z,14.60
2023-04-24T08:14:01.473Z,14.19
2023-04-24T08:16:29.818Z,14.27
2023-04-24T08:18:58.037Z,14.48
2023-04-24T08:21:28.046Z,14.53
2023-04-24T08:23:56.460Z,13.72
2023-04-24T08:26:24.797Z,13.81
2023-04-24T08:28:53.121Z,13.81
2023-04-24T08:31:21.363Z,14.01
2023-04-24T08:33:49.597Z,13.91
2023-04-24T08:36:17.911Z,13.93
2023-04-24T08:38:47.767Z,13.96
2023-04-24T08:41:17.355Z,13.68
2023-04-24T08:43:47.722Z,13.94
2023-04-24T08:46:17.731Z,13.92
2023-04-24T08:48:46.415Z,14.04
2023-04-24T08:51:14.798Z,13.99
2023-04-24T08:53:43.327Z,13.68
2023-04-24T08:56:13.928Z,13.71
2023-04-24T08:58:42.613Z,13.55
2023-04-24T09:01:12.212Z,13.80
2023-04-24T09:03:41.068Z,14.21
2023-04-24T09:06:11.314Z,14.40
2023-04-24T09:08:42.195Z,14.24
2023-04-24T09:11:11.140Z,13.92
2023-04-24T09:13:39.680Z,14.07
2023-04-24T09:16:08.089Z,14.39
2023-04-24T09:18:36.608Z,13.81
2023-04-24T09:21:09.442Z,13.85
2023-04-24T09:23:38.556Z,14.02
2023-04-24T09:26:06.970Z,13.65
2023-04-24T09:28:41.507Z,14.12
2023-04-24T09:31:15.809Z,14.07
2023-04-24T09:34:05.725Z,13.82
2023-04-24T09:36:41.852Z,13.75
2023-04-24T09:39:16.282Z,13.72
2023-04-24T09:42:00.836Z,13.73
2023-04-24T09:44:29.640Z,13.65
2023-04-24T09:47:00.933Z,13.64
2023-04-24T09:49:31.531Z,13.62
2023-04-24T09:52:08.544Z,13.90
2023-04-24T09:54:40.028Z,13.84
2023-04-24T09:57:11.542Z,14.04
2023-04-24T09:59:47.655Z,13.80
2023-04-24T10:02:21.296Z,14.11
2023-04-24T10:04:58.111Z,13.97
2023-04-24T10:07:29.586Z,13.83
2023-04-24T10:09:58.238Z,14.01
2023-04-24T10:12:30.002Z,14.19
2023-04-24T10:14:59.392Z,14.37
2023-04-24T10:17:28.016Z,14.34
2023-04-24T10:19:56.557Z,13.98
2023-04-24T10:22:24.917Z,14.19
2023-04-24T10:24:53.670Z,13.89
2023-04-24T10:27:22.362Z,13.80
2023-04-24T10:29:53.051Z,14.49
2023-04-24T10:32:21.626Z,14.54
2023-04-24T10:34:50.008Z,14.07
2023-04-24T10:37:18.495Z,14.38
2023-04-24T10:39:51.967Z,14.80
2023-04-24T10:42:20.292Z,14.79
2023-04-24T10:44:51.660Z,14.45
2023-04-24T10:47:20.032Z,14.52
2023-04-24T10:49:48.247Z,14.06
2023-04-24T10:52:17.605Z,14.25
2023-04-24T10:54:50.365Z,14.30
2023-04-24T10:57:21.843Z,13.92
2023-04-24T11:00:10.938Z,13.84
2023-04-24T11:02:41.402Z,13.23
2023-04-24T11:05:11.887Z,13.10
2023-04-24T11:08:23.414Z,13.01
2023-04-24T11:11:18.734Z,12.97
2023-04-24T11:13:58.974Z,13.25
2023-04-24T11:16:53.794Z,12.35
2023-04-24T11:19:29.925Z,12.63
2023-04-24T11:22:06.216Z,12.93
2023-04-24T11:24:54.609Z,13.07
2023-04-24T11:27:35.731Z,12.82
2023-04-24T11:30:05.885Z,12.80
2023-04-24T11:32:43.368Z,12.55
2023-04-24T11:35:19.998Z,13.14
2023-04-24T11:38:13.079Z,12.62
2023-04-24T11:40:43.457Z,12.62
2023-04-24T11:43:12.323Z,12.40
2023-04-24T11:45:49.959Z,12.46
2023-04-24T11:48:23.737Z,12.82
2023-04-24T11:50:53.260Z,12.86
2023-04-24T11:53:22.712Z,13.04
2023-04-24T11:55:51.288Z,13.03
2023-04-24T11:58:23.712Z,12.98
2023-04-24T12:00:59.111Z,12.83
2023-04-24T12:03:27.751Z,12.59
2023-04-24T12:06:10.993Z,13.15
2023-04-24T12:08:39.941Z,13.25
2023-04-24T12:11:08.660Z,12.99
2023-04-24T12:13:37.522Z,12.85
2023-04-24T12:16:06.818Z,13.47
2023-04-24T12:18:35.479Z,13.19
2023-04-24T12:21:23.583Z,13.38
2023-04-24T12:23:51.990Z,13.38
2023-04-24T12:26:22.075Z,13.96
2023-04-24T12:28:50.917Z,13.12
2023-04-24T12:31:19.931Z,12.82
2023-04-24T12:33:48.184Z,13.37
2023-04-24T12:36:16.492Z,13.01
2023-04-24T12:38:47.372Z,13.29
2023-04-24T12:41:16.053Z,12.83
2023-04-24T12:43:54.485Z,12.79
2023-04-24T12:46:22.965Z,13.21
2023-04-24T12:48:51.537Z,12.75
2023-04-24T12:51:19.952Z,12.48
2023-04-24T12:53:48.195Z,13.22
2023-04-24T12:56:16.436Z,13.56
2023-04-24T12:58:44.608Z,13.27
2023-04-24T13:01:12.876Z,13.87
2023-04-24T13:03:41.590Z,13.57
2023-04-24T13:06:11.240Z,13.68
2023-04-24T13:08:39.644Z,13.76
2023-04-24T13:11:08.014Z,13.68
2023-04-24T13:13:36.411Z,13.69
2023-04-24T13:16:04.965Z,13.22
2023-04-24T13:18:33.280Z,12.98
2023-04-24T13:21:01.554Z,12.94
2023-04-24T13:23:30.220Z,12.90
2023-04-24T13:25:59.373Z,13.31
2023-04-24T13:28:27.750Z,12.99
2023-04-24T13:30:56.172Z,13.11
2023-04-24T13:33:24.409Z,13.21
2023-04-24T13:35:52.691Z,13.24
2023-04-24T13:38:22.456Z,13.32
2023-04-24T13:40:50.932Z,12.83
2023-04-24T13:43:19.202Z,13.15
2023-04-24T13:45:47.556Z,13.28
2023-04-24T13:48:16.524Z,13.47
2023-04-24T13:50:45.320Z,14.50
2023-04-24T13:53:13.537Z,14.59
2023-04-24T13:55:41.787Z,14.29
2023-04-24T13:58:10.048Z,14.34
2023-04-24T14:00:38.392Z,14.11
2023-04-24T14:03:06.816Z,14.32
2023-04-24T14:05:37.160Z,14.25
2023-04-24T14:08:07.125Z,14.41
2023-04-24T14:10:35.623Z,14.18
2023-04-24T14:13:04.001Z,14.32
2023-04-24T14:15:32.308Z,14.46
2023-04-24T14:18:00.826Z,14.68
2023-04-24T14:20:29.406Z,14.83
2023-04-24T14:23:00.006Z,14.47
2023-04-24T14:25:28.629Z,14.19
2023-04-24T14:27:57.021Z,14.03
2023-04-24T14:30:25.311Z,14.30
2023-04-24T14:32:53.677Z,13.81
2023-04-24T14:35:22.926Z,14.10
2023-04-24T14:37:52.475Z,13.96
2023-04-24T14:40:48.735Z,13.57
2023-04-24T14:43:08.900Z,13.50
2023-04-24T14:45:41.093Z,13.19
2023-04-24T14:48:09.732Z,13.14
2023-04-24T14:50:38.220Z,13.38
2023-04-24T14:53:06.502Z,13.16
2023-04-24T14:55:37.116Z,12.88
2023-04-24T14:58:05.726Z,12.74
2023-04-24T15:00:34.384Z,12.89
2023-04-24T15:03:02.991Z,13.26
2023-04-24T15:05:31.702Z,13.51
2023-04-24T15:08:00.195Z,13.15
2023-04-24T15:10:30.188Z,13.44
2023-04-24T15:12:58.507Z,13.17
2023-04-24T15:15:28.926Z,13.23
2023-04-24T15:17:57.393Z,13.29
2023-04-24T15:20:25.745Z,13.45
2023-04-24T15:22:53.989Z,13.59
2023-04-24T15:25:22.277Z,13.59
2023-04-24T15:27:50.633Z,13.43
2023-04-24T15:30:20.997Z,13.24
2023-04-24T15:32:49.296Z,13.22
2023-04-24T15:35:18.422Z,13.34
2023-04-24T15:37:46.766Z,13.44
2023-04-24T15:40:16.687Z,13.34
2023-04-24T15:42:45.617Z,13.23
2023-04-24T15:45:14.026Z,13.30
2023-04-24T15:47:42.623Z,13.53
2023-04-24T15:50:14.218Z,13.46
2023-04-24T15:52:43.824Z,13.71
2023-04-24T15:55:12.419Z,13.79
2023-04-24T15:57:40.935Z,13.76
2023-04-24T16:00:10.887Z,13.62
2023-04-24T16:02:41.881Z,13.49
2023-04-24T16:05:11.212Z,13.38
2023-04-24T16:07:40.336Z,13.41
2023-04-24T16:10:09.293Z,13.20
2023-04-24T16:12:37.592Z,13.01
2023-04-24T16:15:06.825Z,13.18
2023-04-24T16:17:35.517Z,12.85
2023-04-24T16:20:05.566Z,12.77
2023-04-24T16:22:34.139Z,12.90
2023-04-24T16:25:02.554Z,12.56
2023-04-24T16:28:12.126Z,12.33
2023-04-24T16:30:40.983Z,12.24
2023-04-24T16:33:10.908Z,12.56
2023-04-24T16:35:39.145Z,13.03
2023-04-24T16:38:07.482Z,13.02
2023-04-24T16:40:35.785Z,12.80
2023-04-24T16:43:04.027Z,12.72
2023-04-24T16:45:32.285Z,12.96
2023-04-24T16:48:02.000Z,12.78
2023-04-24T16:50:30.500Z,13.75
2023-04-24T16:52:58.752Z,14.79
2023-04-24T16:55:27.096Z,15.15
2023-04-24T16:57:56.136Z,16.08
2023-04-24T17:00:24.576Z,16.45
2023-04-24T17:02:53.019Z,15.49
2023-04-24T17:05:23.389Z,14.52
2023-04-24T17:07:51.970Z,14.52
2023-04-24T17:10:20.406Z,13.98
2023-04-24T17:12:48.586Z,14.05
2023-04-24T17:15:17.026Z,14.02
2023-04-24T17:17:46.134Z,13.37
2023-04-24T17:20:22.136Z,13.68
2023-04-24T17:22:51.574Z,13.87
2023-04-24T17:25:21.124Z,13.78
2023-04-24T17:27:49.546Z,13.26
2023-04-24T17:30:18.123Z,13.15
2023-04-24T17:32:46.890Z,13.57
2023-04-24T17:35:15.233Z,13.39
2023-04-24T17:37:43.616Z,13.17
2023-04-24T17:40:12.974Z,13.15
2023-04-24T17:42:42.259Z,13.32
2023-04-24T17:45:12.024Z,13.25
2023-04-24T17:47:40.954Z,13.08
2023-04-24T17:50:09.616Z,13.05
2023-04-24T17:52:37.914Z,12.88
2023-04-24T17:55:06.874Z,13.10
2023-04-24T17:57:35.379Z,12.85
2023-04-24T18:00:05.213Z,12.46
2023-04-24T18:02:33.992Z,12.41
2023-04-24T18:05:02.686Z,12.65
2023-04-24T18:07:30.981Z,12.55
2023-04-24T18:09:59.211Z,12.45
2023-04-24T18:12:27.491Z,12.91
2023-04-24T18:15:06.724Z,12.93
2023-04-24T18:17:42.690Z,12.63
2023-04-24T18:20:12.461Z,12.65
2023-04-24T18:22:41.458Z,12.54
2023-04-24T18:25:14.086Z,12.31
2023-04-24T18:27:42.966Z,12.40
2023-04-24T18:30:14.501Z,12.36
2023-04-24T18:32:43.409Z,12.07
2023-04-24T18:35:11.855Z,12.15
2023-04-24T18:37:40.782Z,11.84
2023-04-24T18:40:11.220Z,12.08
2023-04-24T18:42:39.883Z,12.29
2023-04-24T18:45:11.263Z,12.15
2023-04-24T18:47:41.247Z,12.29
2023-04-24T18:50:10.370Z,12.65
2023-04-24T18:52:38.612Z,12.42
2023-04-24T18:55:07.467Z,12.46
2023-04-24T18:57:35.894Z,12.43
2023-04-24T19:00:05.195Z,12.65
2023-04-24T19:02:34.599Z,12.52
2023-04-24T19:05:03.487Z,12.48
2023-04-24T19:07:31.849Z,12.40
2023-04-24T19:10:00.165Z,12.08
2023-04-24T19:12:28.834Z,12.33
2023-04-24T19:14:58.251Z,12.09
2023-04-24T19:17:26.770Z,12.23
2023-04-24T19:19:55.348Z,11.99
2023-04-24T19:22:23.551Z,12.04
2023-04-24T19:24:53.633Z,12.37
2023-04-24T19:27:22.653Z,11.95
2023-04-24T19:29:52.107Z,12.10
2023-04-24T19:32:21.066Z,12.42
2023-04-24T19:34:49.379Z,12.02
2023-04-24T19:37:17.666Z,12.22
2023-04-24T19:39:46.054Z,12.15
2023-04-24T19:42:14.358Z,11.73
2023-04-24T19:44:43.137Z,12.26
2023-04-24T19:47:13.043Z,11.99
2023-04-24T19:49:41.484Z,11.77
2023-04-24T19:52:09.781Z,11.99
2023-04-24T19:54:38.093Z,12.04
2023-04-24T19:57:06.600Z,11.79
2023-04-24T19:59:34.863Z,12.00
2023-04-24T20:02:03.203Z,11.99
2023-04-24T20:04:31.744Z,12.09
2023-04-24T20:07:00.121Z,11.98
2023-04-24T20:09:28.579Z,12.03
2023-04-24T20:11:57.187Z,11.83
2023-04-24T20:14:25.668Z,11.78
2023-04-24T20:16:54.403Z,11.89
2023-04-24T20:19:22.688Z,12.12
2023-04-24T20:21:51.098Z,12.06
2023-04-24T20:24:19.575Z,12.14
2023-04-24T20:26:47.764Z,11.78
2023-04-24T20:29:16.323Z,12.02
2023-04-24T20:31:49.027Z,11.91
2023-04-24T20:34:17.330Z,11.55
2023-04-24T20:36:49.450Z,11.53
2023-04-24T20:39:18.571Z,11.61
2023-04-24T20:41:47.925Z,11.27
2023-04-24T20:44:16.196Z,11.18
2023-04-24T20:46:44.702Z,11.35
2023-04-24T20:49:12.969Z,11.37
2023-04-24T20:51:41.492Z,11.49
2023-04-24T20:54:09.700Z,11.48
2023-04-24T20:56:38.027Z,11.46
2023-04-24T20:59:06.236Z,11.26
2023-04-24T21:01:34.657Z,11.50
2023-04-24T21:04:03.377Z,11.55
2023-04-24T21:06:32.023Z,11.65
2023-04-24T21:09:00.428Z,11.46
2023-04-24T21:11:29.738Z,11.44
2023-04-24T21:13:58.849Z,11.24
2023-04-24T21:16:27.208Z,11.41
2023-04-24T21:18:55.523Z,11.19
2023-04-24T21:21:25.049Z,11.39
2023-04-24T21:23:53.233Z,11.34
2023-04-24T21:26:21.515Z,11.15
2023-04-24T21:28:49.847Z,11.32
2023-04-24T21:31:18.138Z,11.31
2023-04-24T21:33:46.736Z,11.41
2023-04-24T21:36:15.265Z,11.42
2023-04-24T21:38:43.920Z,11.55
2023-04-24T21:41:12.291Z,11.24
2023-04-24T21:43:44.780Z,11.18
2023-04-24T21:46:14.201Z,11.16
2023-04-24T21:48:42.563Z,11.27
2023-04-24T21:51:11.136Z,11.27
2023-04-24T21:53:39.409Z,11.39
2023-04-24T21:56:07.702Z,11.19
2023-04-24T21:58:36.459Z,11.27
2023-04-24T22:01:04.851Z,11.16
2023-04-24T22:03:33.443Z,11.19
2023-04-24T22:06:01.884Z,11.04
2023-04-24T22:08:30.291Z,10.89
2023-04-24T22:10:58.614Z,10.86
2023-04-24T22:13:27.665Z,10.84
2023-04-24T22:15:56.504Z,10.98
2023-04-24T22:18:33.460Z,10.87
2023-04-24T22:21:08.879Z,10.82
2023-04-24T22:23:37.338Z,10.81
2023-04-24T22:26:05.962Z,10.98
2023-04-24T22:28:34.162Z,10.60
2023-04-24T22:31:02.644Z,11.11
2023-04-24T22:33:30.941Z,10.59
2023-04-24T22:35:59.208Z,10.89
2023-04-24T22:38:27.533Z,11.13
2023-04-24T22:40:55.982Z,10.68
2023-04-24T22:43:24.430Z,10.74
2023-04-24T22:45:52.726Z,10.69
2023-04-24T22:48:21.184Z,10.85
2023-04-24T22:50:49.484Z,10.55
2023-04-24T22:53:21.255Z,10.62
2023-04-24T22:55:49.473Z,10.67
2023-04-24T22:58:17.736Z,10.64
2023-04-24T23:00:46.047Z,10.61
2023-04-24T23:03:14.844Z,10.75
2023-04-24T23:05:43.219Z,10.61
2023-04-24T23:08:11.512Z,10.63
2023-04-24T23:10:40.118Z,10.79
2023-04-24T23:13:08.579Z,11.00
2023-04-24T23:15:39.054Z,10.77
2023-04-24T23:18:07.416Z,10.90
2023-04-24T23:20:35.682Z,10.80
2023-04-24T23:23:04.149Z,10.97
2023-04-24T23:25:32.897Z,10.92
2023-04-24T23:28:01.183Z,10.67
2023-04-24T23:30:29.786Z,11.05
2023-04-24T23:32:58.062Z,11.09
2023-04-24T23:35:27.110Z,10.74
2023-04-24T23:37:56.845Z,10.89
2023-04-24T23:40:25.489Z,10.68
2023-04-24T23:43:05.611Z,10.86
2023-04-24T23:45:34.723Z,11.15
2023-04-24T23:48:04.127Z,10.86
2023-04-24T23:50:32.451Z,10.99
2023-04-24T23:53:00.926Z,10.97
2023-04-24T23:55:29.221Z,10.99
2023-04-24T23:57:57.558Z,11.23
